D57

Glen Ullin Regional Airport

Glen Ullin, North Dakota, USA
METAR KD57 212235Z AUTO 19018G23KT 10SM FEW050 15/02 A3012 RMK AO2
Observed Flight Rules
Apr-21 @ 22:35 UTC (7 minutes ago) Visual Flight Rules
Wind Visibility Clouds
190° at 18 knots
 Gusting to 23 knots
10 miles
  • Few at 5,000' AGL
Temperatures Readings
Current 15°C / 59°F
Dewpoint 2°C / 36°F
Humidity 42%
Altimeter 30.12" Hg
Pressure 1020 hPa
Elevation 637
METAR KD57 212235Z AUTO 19018G23KT 10SM FEW050 15/02 A3012 RMK AO2
Observed Flight Rules
Apr-21 @ 22:35 UTC
(7 minutes ago)
VFR
Wind Visibility
190° at 18 knots
 Gusting to 23 knots
10 miles
Clouds
  • Few at 5,000' AGL
Temperature Dewpoint
15°C / 59°F 2°C / 36°F
Humidity Altimeter Pressure
42% 30.12" Hg 1020 hPa